Jack Holland — WDF3615 — position and weather

sailwx.info

Track history (hours):
 
Tides and Currents Weather Stations Pressure Air Temp Water Temp Dewpoint Dewpoint Depression Visibility Wind Speed Wind Dir Waves Ship Positions

Jack Holland

Owner: Norfolk Tug Company, Norfolk, VA. More information available from US FCC via Universal Licensing System and Coast Guard Vessel Documentation Center.

Last reported at 2015-Aug-01 07:33 UTC. Time now 2015-Aug-04 05:25 UTC.
Position N 37°22' W 076°11'.

Length 22 m; draft 2.5 m.

Type: Tug. MMSI: 367442020.

Date/timePositionNaut miles runAvg speedWind from/ knotsBaromVisibWave heightAir tempDewpointWater temp
2015-Aug-01 07:33N 37°22' W 076°11'30 4.9
2015-Aug-01 01:23N 37°52' W 076°10'5 5.5
2015-Aug-01 00:33N 37°56' W 076°12'6 6.0
2015-Jul-31 23:33N 38°02' W 076°15'50 5.5
2015-Jul-31 14:32N 38°50' W 076°26'6 6.2
2015-Jul-31 13:33N 38°56' W 076°24'6 5.9
2015-Jul-31 12:33N 39°02' W 076°22'5 5.0
2015-Jul-31 11:33N 39°07' W 076°20'4 4.5
2015-Jul-31 10:33N 39°11' W 076°17'4 4.5
2015-Jul-31 09:33N 39°15' W 076°14'5 4.5
2015-Jul-31 08:33N 39°19' W 076°12'6 5.8
2015-Jul-31 07:34N 39°23' W 076°07'6 5.5
2015-Jul-31 06:33N 39°26' W 076°01'7 6.6
2015-Jul-31 05:33N 39°30' W 075°55'7 7.0
2015-Jul-31 04:33N 39°32' W 075°46'7 7.1
2015-Jul-31 03:33N 39°33' W 075°37'3 3.5
2015-Jul-31 02:33N 39°36' W 075°34'3 2.9
2015-Jul-31 01:33N 39°39' W 075°34'4 4.0
2015-Jul-31 00:33N 39°42' W 075°31'5 5.2
2015-Jul-30 23:33N 39°47' W 075°28'7 6.8
2015-Jul-30 22:33N 39°51' W 075°21'7 6.8
2015-Jul-30 21:33N 39°52' W 075°12'5 4.9
2015-Jul-30 20:33N 39°56' W 075°08'0 0.1
2015-Jul-30 19:33N 39°56' W 075°08'0 0.0
2015-Jul-30 18:33N 39°56' W 075°08'0 0.0
2015-Jul-30 17:33N 39°56' W 075°08'0 0.0
2015-Jul-30 16:33N 39°56' W 075°08'0 0.0
2015-Jul-30 15:33N 39°56' W 075°08'0 0.0
2015-Jul-30 14:33N 39°56' W 075°08'0 0.0
2015-Jul-30 13:33N 39°56' W 075°08'0 0.0
2015-Jul-30 12:33N 39°56' W 075°08'0 0.0
2015-Jul-30 11:33N 39°56' W 075°08'0 0.0
2015-Jul-30 10:33N 39°56' W 075°08'0 0.0
2015-Jul-30 09:33N 39°56' W 075°08'0 0.0
2015-Jul-30 08:33N 39°56' W 075°08'0 0.0
2015-Jul-30 07:33N 39°56' W 075°08'0 0.0
2015-Jul-30 06:33N 39°56' W 075°08'0 0.0
2015-Jul-30 05:33N 39°56' W 075°08'0 0.0
2015-Jul-30 04:33N 39°56' W 075°08'0 0.0
2015-Jul-30 03:33N 39°56' W 075°08'0 0.0
2015-Jul-30 02:33N 39°56' W 075°08'3 3.5
2015-Jul-30 01:33N 39°53' W 075°10'9 8.8
2015-Jul-30 00:33N 39°50' W 075°21'9 8.8
2015-Jul-29 23:33N 39°45' W 075°30'8 8.1
2015-Jul-29 22:33N 39°37' W 075°35'5 5.2
2015-Jul-29 21:33N 39°33' W 075°39'9 8.5
2015-Jul-29 20:33N 39°32' W 075°50'7 7.4
2015-Jul-29 19:33N 39°28' W 075°58'7 6.8
2015-Jul-29 18:33N 39°23' W 076°04'6 6.4
2015-Jul-29 17:33N 39°20' W 076°12'31 6.2
2015-Jul-29 12:32N 38°51' W 076°26'7 6.7
2015-Jul-29 11:26N 38°44' W 076°29'37 7.2
2015-Jul-29 06:20N 38°08' W 076°16'6 7.6
2015-Jul-29 05:33N 38°03' W 076°14'  
2015-Jul-26 08:32N 36°27' W 075°58'  
2015-Jul-24 02:33N 37°57' W 076°12'6 5.5
2015-Jul-24 01:33N 38°02' W 076°15'49 5.8
2015-Jul-23 17:06N 38°50' W 076°26'30 5.5
2015-Jul-23 11:33N 39°19' W 076°13'6 6.3
2015-Jul-23 10:33N 39°23' W 076°06'6 5.8
2015-Jul-23 09:33N 39°26' W 076°00'6 5.7
2015-Jul-23 08:33N 39°30' W 075°55'5 5.0
2015-Jul-23 07:34N 39°32' W 075°49'5 4.6
2015-Jul-23 06:33N 39°33' W 075°43'4 4.1
2015-Jul-23 05:34N 39°33' W 075°38'4 3.7
2015-Jul-23 04:34N 39°34' W 075°33'5 5.4
2015-Jul-23 03:33N 39°40' W 075°33'7 7.0
2015-Jul-23 02:33N 39°46' W 075°29'7 6.7
2015-Jul-23 01:34N 39°50' W 075°22'7 6.6
2015-Jul-23 00:33N 39°52' W 075°14'5 5.2
2015-Jul-22 23:34N 39°55' W 075°08'2 1.5
2015-Jul-22 22:33N 39°56' W 075°08'0 0.0
2015-Jul-22 21:33N 39°56' W 075°08'0 0.0
2015-Jul-22 20:34N 39°56' W 075°08'0 0.0
2015-Jul-22 19:34N 39°56' W 075°08'0 0.0
2015-Jul-22 18:33N 39°56' W 075°08'0 0.0
2015-Jul-22 17:33N 39°56' W 075°08'0 0.0
2015-Jul-22 16:33N 39°56' W 075°08'0 0.0
2015-Jul-22 15:34N 39°56' W 075°08'0 0.0
2015-Jul-22 14:34N 39°56' W 075°08'0 0.0
2015-Jul-22 13:34N 39°56' W 075°08'0 0.0
2015-Jul-22 12:33N 39°56' W 075°08'0 0.0
2015-Jul-22 11:34N 39°56' W 075°08'0 0.0
2015-Jul-22 10:33N 39°56' W 075°08'0 0.0
2015-Jul-22 09:34N 39°56' W 075°08'0 0.0
2015-Jul-22 08:34N 39°56' W 075°08'0 0.0
2015-Jul-22 07:33N 39°56' W 075°08'  
Track history (hours):
 
Tides and Currents Weather Stations Pressure Air Temp Water Temp Dewpoint Dewpoint Depression Visibility Wind Speed Wind Dir Waves Ship Positions

Jack Holland

Owner: Norfolk Tug Company, Norfolk, VA. More information available from US FCC via Universal Licensing System and Coast Guard Vessel Documentation Center.

Last reported at 2015-Aug-01 07:33 UTC. Time now 2015-Aug-04 05:25 UTC.
Position N 37°22' W 076°11'.

Length 22 m; draft 2.5 m.

Type: Tug. MMSI: 367442020.

Date/timePositionNaut miles runAvg speedWind from/ knotsBaromVisibWave heightAir tempDewpointWater temp
2015-Aug-01 07:33N 37°22' W 076°11'30 4.9
2015-Aug-01 01:23N 37°52' W 076°10'5 5.5
2015-Aug-01 00:33N 37°56' W 076°12'6 6.0
2015-Jul-31 23:33N 38°02' W 076°15'50 5.5
2015-Jul-31 14:32N 38°50' W 076°26'6 6.2
2015-Jul-31 13:33N 38°56' W 076°24'6 5.9
2015-Jul-31 12:33N 39°02' W 076°22'5 5.0
2015-Jul-31 11:33N 39°07' W 076°20'4 4.5
2015-Jul-31 10:33N 39°11' W 076°17'4 4.5
2015-Jul-31 09:33N 39°15' W 076°14'5 4.5
2015-Jul-31 08:33N 39°19' W 076°12'6 5.8
2015-Jul-31 07:34N 39°23' W 076°07'6 5.5
2015-Jul-31 06:33N 39°26' W 076°01'7 6.6
2015-Jul-31 05:33N 39°30' W 075°55'7 7.0
2015-Jul-31 04:33N 39°32' W 075°46'7 7.1
2015-Jul-31 03:33N 39°33' W 075°37'3 3.5
2015-Jul-31 02:33N 39°36' W 075°34'3 2.9
2015-Jul-31 01:33N 39°39' W 075°34'4 4.0
2015-Jul-31 00:33N 39°42' W 075°31'5 5.2
2015-Jul-30 23:33N 39°47' W 075°28'7 6.8
2015-Jul-30 22:33N 39°51' W 075°21'7 6.8
2015-Jul-30 21:33N 39°52' W 075°12'5 4.9
2015-Jul-30 20:33N 39°56' W 075°08'0 0.1
2015-Jul-30 19:33N 39°56' W 075°08'0 0.0
2015-Jul-30 18:33N 39°56' W 075°08'0 0.0
2015-Jul-30 17:33N 39°56' W 075°08'0 0.0
2015-Jul-30 16:33N 39°56' W 075°08'0 0.0
2015-Jul-30 15:33N 39°56' W 075°08'0 0.0
2015-Jul-30 14:33N 39°56' W 075°08'0 0.0
2015-Jul-30 13:33N 39°56' W 075°08'0 0.0
2015-Jul-30 12:33N 39°56' W 075°08'0 0.0
2015-Jul-30 11:33N 39°56' W 075°08'0 0.0
2015-Jul-30 10:33N 39°56' W 075°08'0 0.0
2015-Jul-30 09:33N 39°56' W 075°08'0 0.0
2015-Jul-30 08:33N 39°56' W 075°08'0 0.0
2015-Jul-30 07:33N 39°56' W 075°08'0 0.0
2015-Jul-30 06:33N 39°56' W 075°08'0 0.0
2015-Jul-30 05:33N 39°56' W 075°08'0 0.0
2015-Jul-30 04:33N 39°56' W 075°08'0 0.0
2015-Jul-30 03:33N 39°56' W 075°08'0 0.0
2015-Jul-30 02:33N 39°56' W 075°08'3 3.5
2015-Jul-30 01:33N 39°53' W 075°10'9 8.8
2015-Jul-30 00:33N 39°50' W 075°21'9 8.8
2015-Jul-29 23:33N 39°45' W 075°30'8 8.1
2015-Jul-29 22:33N 39°37' W 075°35'5 5.2
2015-Jul-29 21:33N 39°33' W 075°39'9 8.5
2015-Jul-29 20:33N 39°32' W 075°50'7 7.4
2015-Jul-29 19:33N 39°28' W 075°58'7 6.8
2015-Jul-29 18:33N 39°23' W 076°04'6 6.4
2015-Jul-29 17:33N 39°20' W 076°12'31 6.2
2015-Jul-29 12:32N 38°51' W 076°26'7 6.7
2015-Jul-29 11:26N 38°44' W 076°29'37 7.2
2015-Jul-29 06:20N 38°08' W 076°16'6 7.6
2015-Jul-29 05:33N 38°03' W 076°14'  
2015-Jul-26 08:32N 36°27' W 075°58'  
2015-Jul-24 02:33N 37°57' W 076°12'6 5.5
2015-Jul-24 01:33N 38°02' W 076°15'49 5.8
2015-Jul-23 17:06N 38°50' W 076°26'30 5.5
2015-Jul-23 11:33N 39°19' W 076°13'6 6.3
2015-Jul-23 10:33N 39°23' W 076°06'6 5.8
2015-Jul-23 09:33N 39°26' W 076°00'6 5.7
2015-Jul-23 08:33N 39°30' W 075°55'5 5.0
2015-Jul-23 07:34N 39°32' W 075°49'5 4.6
2015-Jul-23 06:33N 39°33' W 075°43'4 4.1
2015-Jul-23 05:34N 39°33' W 075°38'4 3.7
2015-Jul-23 04:34N 39°34' W 075°33'5 5.4
2015-Jul-23 03:33N 39°40' W 075°33'7 7.0
2015-Jul-23 02:33N 39°46' W 075°29'7 6.7
2015-Jul-23 01:34N 39°50' W 075°22'7 6.6
2015-Jul-23 00:33N 39°52' W 075°14'5 5.2
2015-Jul-22 23:34N 39°55' W 075°08'2 1.5
2015-Jul-22 22:33N 39°56' W 075°08'0 0.0
2015-Jul-22 21:33N 39°56' W 075°08'0 0.0
2015-Jul-22 20:34N 39°56' W 075°08'0 0.0
2015-Jul-22 19:34N 39°56' W 075°08'0 0.0
2015-Jul-22 18:33N 39°56' W 075°08'0 0.0
2015-Jul-22 17:33N 39°56' W 075°08'0 0.0
2015-Jul-22 16:33N 39°56' W 075°08'0 0.0
2015-Jul-22 15:34N 39°56' W 075°08'0 0.0
2015-Jul-22 14:34N 39°56' W 075°08'0 0.0
2015-Jul-22 13:34N 39°56' W 075°08'0 0.0
2015-Jul-22 12:33N 39°56' W 075°08'0 0.0
2015-Jul-22 11:34N 39°56' W 075°08'0 0.0
2015-Jul-22 10:33N 39°56' W 075°08'0 0.0
2015-Jul-22 09:34N 39°56' W 075°08'0 0.0
2015-Jul-22 08:34N 39°56' W 075°08'0 0.0
2015-Jul-22 07:33N 39°56' W 075°08'  

Dump ship's entire track history